Time;durP1;ratioP1;P1;durP2;ratioP2;P2;SDS_P1;SDS_P2;PMS_P1;PMS_P2;Temp;Humidity;BMP_temperature;BMP_pressure;BME280_temperature;BME280_humidity;BME280_pressure;Samples;Min_cycle;Max_cycle;Signal;HPM_P1;HPM_P2
2023/04/24 00:00:56;;;;;;;1.80;1.20;;;12.30;99.90;;;;;;5040633;28;20476;-64
2023/04/24 00:03:24;;;;;;;2.13;1.20;;;12.30;99.90;;;;;;5037893;28;20464;-63
2023/04/24 00:05:51;;;;;;;1.13;1.03;;;12.30;99.90;;;;;;5036772;28;20816;-64
2023/04/24 00:08:19;;;;;;;1.73;1.20;;;12.20;99.90;;;;;;5033615;28;20449;-65
2023/04/24 00:10:45;;;;;;;5.93;1.63;;;12.20;99.90;;;;;;5033178;28;20553;-63
2023/04/24 00:13:12;;;;;;;0.90;0.80;;;12.20;99.90;;;;;;5033772;28;20441;-64
2023/04/24 00:15:39;;;;;;;1.30;1.20;;;12.20;99.90;;;;;;5033705;28;20451;-64
2023/04/24 00:18:06;;;;;;;1.50;1.40;;;12.20;99.90;;;;;;5033442;28;20444;-64
2023/04/24 00:20:35;;;;;;;2.03;1.50;;;12.10;99.90;;;;;;5033887;28;20494;-64
2023/04/24 00:23:02;;;;;;;1.30;1.17;;;12.10;99.90;;;;;;5035782;28;21009;-64
2023/04/24 00:25:29;;;;;;;1.40;1.10;;;12.00;99.90;;;;;;5035889;28;20433;-64
2023/04/24 00:27:55;;;;;;;1.27;1.07;;;12.00;99.90;;;;;;5037482;28;20445;-64
2023/04/24 00:30:22;;;;;;;1.33;1.23;;;12.00;99.90;;;;;;5037461;28;20461;-64
2023/04/24 00:32:49;;;;;;;3.67;1.23;;;11.90;99.90;;;;;;5037333;28;20452;-64
2023/04/24 00:35:15;;;;;;;1.50;0.97;;;11.90;99.90;;;;;;5037219;28;20445;-64
2023/04/24 00:37:44;;;;;;;2.00;1.30;;;11.90;99.90;;;;;;5036675;28;20476;-65
2023/04/24 00:40:11;;;;;;;2.27;1.20;;;11.90;99.90;;;;;;5036793;28;20464;-65
2023/04/24 00:42:38;;;;;;;1.27;1.17;;;11.90;99.90;;;;;;5037151;28;20456;-65
2023/04/24 00:45:06;;;;;;;1.70;1.33;;;11.90;99.90;;;;;;5036991;28;20455;-64
2023/04/24 00:47:34;;;;;;;1.13;1.00;;;11.90;99.90;;;;;;5036864;28;20449;-63
2023/04/24 00:50:02;;;;;;;1.33;1.23;;;11.90;99.90;;;;;;5037313;28;20559;-64
2023/04/24 00:52:31;;;;;;;1.57;1.20;;;11.90;99.90;;;;;;5036951;28;20452;-64
2023/04/24 00:54:59;;;;;;;1.20;1.10;;;11.80;99.90;;;;;;5037079;28;20456;-63
2023/04/24 00:57:27;;;;;;;2.13;1.40;;;11.80;99.90;;;;;;5036896;28;20480;-64
2023/04/24 00:59:54;;;;;;;1.50;1.40;;;11.80;99.90;;;;;;5036673;28;20821;-63
2023/04/24 01:02:22;;;;;;;1.70;1.37;;;11.70;99.90;;;;;;5037231;28;20452;-64
2023/04/24 01:04:50;;;;;;;1.20;1.10;;;11.60;99.90;;;;;;5036526;28;20487;-64
2023/04/24 01:07:20;;;;;;;1.50;1.30;;;11.60;99.90;;;;;;5036936;28;20476;-64
2023/04/24 01:09:50;;;;;;;1.83;1.20;;;11.60;99.90;;;;;;5037035;28;20474;-64
2023/04/24 01:12:18;;;;;;;1.30;1.00;;;11.50;99.90;;;;;;5036545;28;20438;-64
2023/04/24 01:14:45;;;;;;;1.20;1.03;;;11.50;99.90;;;;;;5036263;28;20535;-64
2023/04/24 01:17:12;;;;;;;1.60;1.40;;;11.50;99.90;;;;;;5036133;28;20508;-64
2023/04/24 01:19:39;;;;;;;1.03;0.93;;;11.40;99.90;;;;;;5035821;28;20481;-64
2023/04/24 01:22:11;;;;;;;1.47;1.10;;;11.40;99.90;;;;;;5036096;28;20818;-64
2023/04/24 01:24:38;;;;;;;1.67;1.10;;;11.30;99.90;;;;;;5036009;28;20437;-64
2023/04/24 01:27:05;;;;;;;1.30;1.20;;;11.20;99.90;;;;;;5036970;28;20441;-64
2023/04/24 01:29:32;;;;;;;1.63;1.40;;;11.20;99.90;;;;;;5035834;28;20461;-64
2023/04/24 01:31:59;;;;;;;1.30;1.20;;;11.10;99.90;;;;;;5035718;28;20449;-66
2023/04/24 01:34:26;;;;;;;2.50;1.40;;;11.20;99.90;;;;;;5035793;28;20447;-64
2023/04/24 01:36:53;;;;;;;2.53;1.47;;;11.10;99.90;;;;;;5035466;28;20480;-65
2023/04/24 01:39:23;;;;;;;1.30;1.20;;;11.10;99.90;;;;;;5034948;28;20492;-64
2023/04/24 01:41:50;;;;;;;1.90;1.20;;;11.00;99.90;;;;;;5035373;28;20962;-64
2023/04/24 01:44:17;;;;;;;1.27;1.17;;;11.00;99.90;;;;;;5036116;28;20453;-64
2023/04/24 01:46:44;;;;;;;6.93;1.20;;;10.90;99.90;;;;;;5035347;28;20437;-64
2023/04/24 01:49:10;;;;;;;1.20;1.10;;;10.90;99.90;;;;;;5035553;28;20469;-65
2023/04/24 01:51:38;;;;;;;1.60;1.20;;;10.90;99.90;;;;;;5035216;28;20444;-65
2023/04/24 01:54:05;;;;;;;1.20;1.10;;;10.90;99.90;;;;;;5035517;28;20449;-65
2023/04/24 01:56:34;;;;;;;1.27;1.17;;;10.90;99.90;;;;;;5035225;28;20481;-64
2023/04/24 01:59:03;;;;;;;1.00;0.83;;;10.80;99.90;;;;;;5035443;28;20472;-64
2023/04/24 02:01:35;;;;;;;1.50;1.33;;;10.80;99.90;;;;;;5035284;28;20456;-66
2023/04/24 02:04:02;;;;;;;1.20;1.10;;;10.80;99.90;;;;;;5040318;28;20984;-65
2023/04/24 02:06:29;;;;;;;2.30;1.13;;;10.80;99.90;;;;;;5035985;28;20442;-65
2023/04/24 02:08:55;;;;;;;1.70;1.50;;;10.80;99.90;;;;;;5034915;28;20469;-64
2023/04/24 02:11:22;;;;;;;1.63;1.00;;;10.80;99.90;;;;;;5037051;28;20453;-65
2023/04/24 02:13:51;;;;;;;1.40;1.10;;;10.80;99.90;;;;;;5036774;28;20456;-64
2023/04/24 02:16:18;;;;;;;1.53;1.30;;;10.80;99.90;;;;;;5034892;28;20989;-65
2023/04/24 02:18:45;;;;;;;1.43;1.33;;;10.80;99.90;;;;;;5034814;28;20471;-65
2023/04/24 02:21:12;;;;;;;1.53;1.40;;;10.80;99.90;;;;;;5034987;28;20425;-63
2023/04/24 02:23:38;;;;;;;1.10;1.00;;;10.80;99.90;;;;;;5034659;28;20458;-64
2023/04/24 02:26:05;;;;;;;1.30;1.20;;;10.70;99.90;;;;;;5035017;28;20449;-65
2023/04/24 02:28:32;;;;;;;1.37;1.27;;;10.70;99.90;;;;;;5035540;28;20457;-64
2023/04/24 02:31:00;;;;;;;1.60;1.50;;;10.70;99.90;;;;;;5034758;28;20452;-63
2023/04/24 02:33:27;;;;;;;2.20;1.40;;;10.70;99.90;;;;;;5034920;28;20503;-63
2023/04/24 02:35:54;;;;;;;2.13;1.80;;;10.70;99.90;;;;;;5034770;28;20453;-64
2023/04/24 02:38:20;;;;;;;1.15;1.05;;;10.70;99.90;;;;;;5034250;28;20484;-64
2023/04/24 02:40:47;;;;;;;2.50;1.37;;;10.60;99.90;;;;;;5034551;28;20229;-65
2023/04/24 02:43:14;;;;;;;1.87;1.57;;;10.60;99.90;;;;;;5034645;28;20441;-64
2023/04/24 02:45:41;;;;;;;2.40;1.10;;;10.60;99.90;;;;;;5034404;28;20492;-64
2023/04/24 02:48:09;;;;;;;1.60;1.50;;;10.60;99.90;;;;;;5035025;28;20445;-64
2023/04/24 02:50:36;;;;;;;1.20;1.10;;;10.50;99.90;;;;;;5033491;28;20499;-64
2023/04/24 02:53:02;;;;;;;1.20;1.10;;;10.50;99.90;;;;;;5034619;28;20456;-65
2023/04/24 02:55:30;;;;;;;1.30;1.20;;;10.40;99.90;;;;;;5034056;28;20706;-64
2023/04/24 02:57:56;;;;;;;1.53;1.10;;;10.40;99.90;;;;;;5034339;28;20214;-65
2023/04/24 03:00:23;;;;;;;2.30;1.33;;;10.40;99.90;;;;;;5034140;28;20469;-64
2023/04/24 03:02:50;;;;;;;2.75;1.40;;;10.40;99.90;;;;;;5034017;28;20209;-63
2023/04/24 03:05:18;;;;;;;1.53;1.40;;;10.40;99.90;;;;;;5034313;28;20206;-64
2023/04/24 03:07:46;;;;;;;1.77;1.23;;;10.40;99.90;;;;;;5036002;28;20544;-64
2023/04/24 03:10:12;;;;;;;1.17;1.07;;;10.40;99.90;;;;;;5034530;28;20523;-63
2023/04/24 03:12:39;;;;;;;1.37;1.27;;;10.50;99.90;;;;;;5034254;28;20954;-63
2023/04/24 03:15:07;;;;;;;1.48;0.98;;;10.50;99.90;;;;;;5034454;28;20449;-64
2023/04/24 03:17:35;;;;;;;3.08;1.27;;;10.50;99.90;;;;;;5034144;28;20214;-64
2023/04/24 03:20:02;;;;;;;1.30;1.00;;;10.50;99.90;;;;;;5033920;28;20775;-62
2023/04/24 03:22:32;;;;;;;1.00;0.90;;;10.40;99.90;;;;;;5034427;28;20445;-64
2023/04/24 03:24:59;;;;;;;1.13;1.03;;;10.50;99.90;;;;;;5036113;28;20796;-62
2023/04/24 03:27:25;;;;;;;1.80;1.10;;;10.50;99.90;;;;;;5036301;28;20939;-64
2023/04/24 03:29:55;;;;;;;1.20;1.10;;;10.60;99.90;;;;;;5033425;28;20837;-64
2023/04/24 03:32:21;;;;;;;1.20;1.00;;;10.60;99.90;;;;;;5033638;28;20492;-65
2023/04/24 03:34:48;;;;;;;1.05;0.95;;;10.60;99.90;;;;;;5033779;28;20202;-64
2023/04/24 03:37:15;;;;;;;1.30;1.20;;;10.60;99.90;;;;;;5033638;28;20226;-64
2023/04/24 03:39:43;;;;;;;1.45;1.02;;;10.50;99.90;;;;;;5033597;28;20226;-65
2023/04/24 03:42:10;;;;;;;1.40;1.02;;;10.50;99.90;;;;;;5033358;28;20217;-66
2023/04/24 03:44:37;;;;;;;2.77;1.07;;;10.50;99.90;;;;;;5033163;28;20672;-64
2023/04/24 03:47:04;;;;;;;1.20;1.08;;;10.50;99.90;;;;;;5033426;28;20445;-67
2023/04/24 03:49:31;;;;;;;1.27;1.08;;;10.40;99.90;;;;;;5033505;28;20269;-65
2023/04/24 03:51:57;;;;;;;2.97;1.27;;;10.40;99.90;;;;;;5033126;28;20206;-64
2023/04/24 03:54:24;;;;;;;1.08;0.80;;;10.40;99.90;;;;;;5033679;28;20268;-66
2023/04/24 03:56:52;;;;;;;1.20;1.10;;;10.40;99.90;;;;;;5033520;28;20206;-65
2023/04/24 03:59:19;;;;;;;1.52;1.35;;;10.40;99.90;;;;;;5034595;28;20623;-66
2023/04/24 04:01:46;;;;;;;1.30;1.20;;;10.30;99.90;;;;;;5034339;28;20302;-66
2023/04/24 04:04:13;;;;;;;1.40;1.17;;;10.30;99.90;;;;;;5037546;28;20206;-65
2023/04/24 04:06:40;;;;;;;1.90;1.10;;;10.30;99.90;;;;;;5039075;28;20909;-65
2023/04/24 04:11:36;;;;;;;1.40;1.30;;;10.20;99.90;;;;;;5116487;27;20558;-64
2023/04/24 04:14:03;;;;;;;1.70;1.02;;;10.30;99.90;;;;;;5117521;28;20555;-64
2023/04/24 04:16:29;;;;;;;2.55;1.50;;;10.30;99.90;;;;;;5117398;28;20203;-64
2023/04/24 04:18:56;;;;;;;1.10;1.00;;;10.30;99.90;;;;;;5117610;28;20220;-64
2023/04/24 04:21:23;;;;;;;1.60;1.13;;;10.30;99.90;;;;;;5119310;28;20446;-65
2023/04/24 04:23:50;;;;;;;1.10;1.00;;;10.30;99.90;;;;;;5121846;28;20223;-63
2023/04/24 04:26:19;;;;;;;1.10;0.90;;;10.40;99.90;;;;;;5121071;28;20207;-63
2023/04/24 04:28:47;;;;;;;2.93;1.07;;;10.40;99.90;;;;;;5114256;28;20225;-63
2023/04/24 04:31:14;;;;;;;1.20;1.10;;;10.60;99.90;;;;;;5110999;28;20485;-62
2023/04/24 04:33:41;;;;;;;1.50;1.30;;;10.60;99.90;;;;;;5110419;28;20978;-64
2023/04/24 04:36:08;;;;;;;1.80;1.30;;;10.70;99.90;;;;;;5110294;28;20962;-63
2023/04/24 04:38:35;;;;;;;1.30;1.20;;;10.60;99.90;;;;;;5110649;28;20441;-63
2023/04/24 04:41:02;;;;;;;1.33;1.20;;;10.60;99.90;;;;;;5110899;28;20437;-64
2023/04/24 04:43:32;;;;;;;2.10;1.30;;;10.70;99.90;;;;;;5110614;28;20448;-63
2023/04/24 04:46:00;;;;;;;1.97;1.50;;;10.70;99.90;;;;;;5115962;28;20426;-63
2023/04/24 04:48:27;;;;;;;2.33;1.43;;;10.70;99.90;;;;;;5111387;28;20446;-63
2023/04/24 04:50:54;;;;;;;1.20;1.10;;;10.60;99.90;;;;;;5110065;28;20535;-63
2023/04/24 04:53:21;;;;;;;2.20;1.60;;;10.60;99.90;;;;;;5110008;28;20990;-63
2023/04/24 04:55:48;;;;;;;3.10;1.20;;;10.60;99.90;;;;;;5110212;28;20454;-64
2023/04/24 04:58:15;;;;;;;1.40;1.20;;;10.70;99.90;;;;;;5110242;28;20442;-64
2023/04/24 05:00:42;;;;;;;1.60;1.20;;;10.80;99.90;;;;;;5109734;28;20461;-64
2023/04/24 05:03:10;;;;;;;1.17;1.07;;;10.90;99.90;;;;;;5110594;28;20539;-63
2023/04/24 05:05:40;;;;;;;3.63;1.40;;;10.90;99.90;;;;;;5110186;28;20446;-64
2023/04/24 05:08:07;;;;;;;1.30;1.20;;;10.90;99.90;;;;;;5112916;28;20446;-64
2023/04/24 05:10:33;;;;;;;2.63;1.40;;;11.10;99.90;;;;;;5113864;28;20489;-64
2023/04/24 05:13:03;;;;;;;1.63;1.27;;;11.20;99.90;;;;;;5110463;28;20454;-64
2023/04/24 05:15:30;;;;;;;1.23;1.13;;;11.40;99.90;;;;;;5110693;28;20441;-64
2023/04/24 05:17:57;;;;;;;1.60;1.20;;;11.60;99.90;;;;;;5110334;28;20441;-64
2023/04/24 05:20:25;;;;;;;1.40;1.30;;;11.70;99.90;;;;;;5109943;28;20468;-63
2023/04/24 05:22:52;;;;;;;1.20;1.07;;;11.80;99.90;;;;;;5097362;28;20548;-64
2023/04/24 05:25:19;;;;;;;2.53;1.40;;;11.70;99.90;;;;;;5097140;28;20446;-63
2023/04/24 05:27:46;;;;;;;1.60;1.03;;;11.70;99.90;;;;;;5096811;28;20483;-65
2023/04/24 05:30:13;;;;;;;2.03;1.20;;;11.70;99.90;;;;;;5096953;28;20477;-64
2023/04/24 05:32:40;;;;;;;1.40;1.10;;;11.70;99.90;;;;;;5096740;28;20451;-64
2023/04/24 05:35:08;;;;;;;1.17;1.07;;;11.80;99.90;;;;;;5096915;28;20814;-64
2023/04/24 05:37:36;;;;;;;1.27;1.17;;;11.80;99.90;;;;;;5096589;28;20442;-64
2023/04/24 05:40:05;;;;;;;10.00;1.50;;;11.90;99.90;;;;;;5096389;28;20463;-65
2023/04/24 05:42:31;;;;;;;1.27;1.17;;;11.90;99.90;;;;;;5096385;28;20450;-64
2023/04/24 05:44:58;;;;;;;2.57;1.33;;;12.00;99.90;;;;;;5096593;28;20537;-64
2023/04/24 05:47:26;;;;;;;1.60;1.30;;;12.10;99.90;;;;;;5096299;28;20450;-64
2023/04/24 05:49:53;;;;;;;1.97;1.40;;;12.10;99.90;;;;;;5096603;28;20606;-65
2023/04/24 05:52:22;;;;;;;1.80;1.70;;;12.20;99.90;;;;;;5097145;28;20489;-64
2023/04/24 05:54:52;;;;;;;1.70;1.60;;;12.20;99.90;;;;;;5098046;28;20454;-63
2023/04/24 05:57:20;;;;;;;2.00;1.30;;;12.20;99.90;;;;;;5097772;28;20435;-65
2023/04/24 05:59:46;;;;;;;1.70;1.60;;;12.30;99.90;;;;;;5095684;28;20463;-64
2023/04/24 06:02:13;;;;;;;1.93;1.33;;;12.40;99.90;;;;;;5101050;28;20449;-64
2023/04/24 06:04:40;;;;;;;1.40;1.30;;;12.50;99.90;;;;;;5106074;28;20444;-65
2023/04/24 06:07:07;;;;;;;1.60;1.50;;;12.60;99.90;;;;;;5103433;28;20495;-64
2023/04/24 06:09:33;;;;;;;1.53;1.40;;;12.60;99.90;;;;;;5097260;28;20488;-65
2023/04/24 06:12:02;;;;;;;1.53;1.30;;;12.60;99.90;;;;;;5096011;28;20474;-65
2023/04/24 06:14:29;;;;;;;1.57;1.47;;;12.60;99.90;;;;;;5095520;28;21024;-65
2023/04/24 06:16:56;;;;;;;2.57;1.60;;;12.50;99.90;;;;;;5095908;28;20446;-64
2023/04/24 06:19:22;;;;;;;2.60;2.00;;;12.40;99.90;;;;;;5110888;22;20455;-59
2023/04/24 06:21:49;;;;;;;1.60;1.37;;;12.40;99.90;;;;;;5035480;28;20421;-61
2023/04/24 06:24:16;;;;;;;12.63;1.50;;;12.30;98.20;;;;;;5035036;28;20930;-59
2023/04/24 06:26:43;;;;;;;1.60;1.50;;;12.30;98.10;;;;;;5034935;28;20441;-58
2023/04/24 06:29:11;;;;;;;3.63;2.20;;;12.20;97.10;;;;;;5034777;28;20935;-59
2023/04/24 06:31:38;;;;;;;2.23;1.50;;;12.20;96.60;;;;;;5034855;28;20508;-59
2023/04/24 06:34:05;;;;;;;2.13;1.90;;;12.20;95.50;;;;;;5033913;28;20507;-60
2023/04/24 06:36:34;;;;;;;1.93;1.70;;;12.10;94.70;;;;;;5035997;28;20449;-60
2023/04/24 06:39:01;;;;;;;2.60;2.17;;;12.10;94.50;;;;;;5034828;28;20540;-61
2023/04/24 06:41:27;;;;;;;2.00;1.70;;;12.20;94.40;;;;;;5034358;28;20531;-60
2023/04/24 06:43:54;;;;;;;2.23;2.00;;;12.20;94.50;;;;;;5035086;28;20458;-56
2023/04/24 06:46:23;;;;;;;2.17;1.97;;;12.30;94.40;;;;;;5034846;28;20455;-60
2023/04/24 06:48:50;;;;;;;2.60;2.40;;;12.40;93.70;;;;;;5034934;28;20449;-61
2023/04/24 06:51:18;;;;;;;3.17;2.87;;;12.50;93.30;;;;;;5034591;28;20476;-56
2023/04/24 06:53:45;;;;;;;3.60;2.70;;;12.50;92.80;;;;;;5034821;28;20992;-59
2023/04/24 06:56:12;;;;;;;3.80;3.20;;;12.70;92.30;;;;;;5034491;28;20506;-57
2023/04/24 06:58:38;;;;;;;3.53;3.33;;;12.70;91.80;;;;;;5034448;28;20455;-59
2023/04/24 07:01:06;;;;;;;3.97;3.67;;;12.80;91.40;;;;;;5034753;28;20461;-59
2023/04/24 07:03:34;;;;;;;3.60;3.30;;;12.90;91.10;;;;;;5035125;28;20441;-59
2023/04/24 07:06:00;;;;;;;3.43;3.10;;;12.90;90.50;;;;;;5035716;28;20439;-61
2023/04/24 07:08:28;;;;;;;3.73;3.43;;;13.00;90.30;;;;;;5035380;28;20449;-57
2023/04/24 07:10:55;;;;;;;4.57;3.50;;;13.00;89.90;;;;;;5035300;28;20572;-61
2023/04/24 07:13:22;;;;;;;5.00;3.80;;;13.10;89.40;;;;;;5035361;28;20445;-58
2023/04/24 07:15:50;;;;;;;7.37;3.53;;;13.20;88.80;;;;;;5034237;28;20820;-60
2023/04/24 07:18:17;;;;;;;5.00;4.13;;;13.20;87.20;;;;;;5035085;28;20455;-59
2023/04/24 07:20:45;;;;;;;4.80;4.30;;;13.20;86.80;;;;;;5035888;28;20480;-59
2023/04/24 07:23:12;;;;;;;4.47;3.67;;;13.30;86.70;;;;;;5036991;28;20441;-59
2023/04/24 07:25:39;;;;;;;5.00;4.50;;;13.40;85.50;;;;;;5039071;28;20463;-58
2023/04/24 07:28:06;;;;;;;3.73;3.43;;;13.60;83.30;;;;;;5036712;28;20531;-59
2023/04/24 07:30:33;;;;;;;4.37;3.87;;;13.70;81.40;;;;;;5037948;28;20481;-59
2023/04/24 07:33:00;;;;;;;5.17;4.60;;;13.80;78.90;;;;;;5035096;28;20831;-59
2023/04/24 07:35:27;;;;;;;6.27;3.87;;;13.70;77.10;;;;;;5035574;28;20445;-59
2023/04/24 07:37:55;;;;;;;5.57;4.30;;;13.70;76.80;;;;;;5035230;28;20831;-59
2023/04/24 07:40:22;;;;;;;8.63;4.97;;;13.70;76.30;;;;;;5034262;28;20469;-59
2023/04/24 07:42:49;;;;;;;5.70;4.37;;;13.80;75.10;;;;;;5034683;28;20448;-59
2023/04/24 07:45:16;;;;;;;4.60;4.00;;;13.90;74.10;;;;;;5034526;28;20445;-59
2023/04/24 07:47:45;;;;;;;4.40;3.50;;;14.20;72.30;;;;;;5034097;28;20484;-59
2023/04/24 07:50:12;;;;;;;5.90;4.37;;;14.40;70.10;;;;;;5034713;28;20948;-60
2023/04/24 07:52:39;;;;;;;4.67;3.80;;;14.40;67.90;;;;;;5039807;28;20511;-59
2023/04/24 07:55:08;;;;;;;5.80;4.20;;;14.50;67.20;;;;;;5035968;28;20501;-59
2023/04/24 07:57:35;;;;;;;5.37;4.87;;;14.40;67.00;;;;;;5033747;28;20445;-58
2023/04/24 08:00:02;;;;;;;5.47;4.97;;;14.50;67.50;;;;;;5033467;28;20464;-58
2023/04/24 08:02:29;;;;;;;5.97;5.37;;;14.70;66.70;;;;;;5033774;28;20440;-60
2023/04/24 08:04:55;;;;;;;7.50;5.23;;;14.70;65.90;;;;;;5033404;28;20663;-58
2023/04/24 08:07:24;;;;;;;6.13;5.53;;;14.60;66.00;;;;;;5033536;28;20440;-58
2023/04/24 08:09:50;;;;;;;6.03;5.53;;;14.60;66.40;;;;;;5033016;28;20457;-59
2023/04/24 08:12:19;;;;;;;6.37;5.77;;;14.50;66.50;;;;;;5032679;28;21017;-58
2023/04/24 08:14:45;;;;;;;5.77;5.17;;;14.40;66.70;;;;;;5033295;28;20834;-59
2023/04/24 08:17:12;;;;;;;5.90;5.10;;;14.40;66.90;;;;;;5033540;28;20445;-59
2023/04/24 08:19:42;;;;;;;6.47;5.80;;;14.30;67.10;;;;;;5033729;28;20479;-58
2023/04/24 08:22:09;;;;;;;6.60;5.83;;;14.20;67.00;;;;;;5033798;28;20495;-60
2023/04/24 08:24:36;;;;;;;6.40;5.77;;;14.20;67.30;;;;;;5034942;28;20449;-60
2023/04/24 08:27:03;;;;;;;9.17;5.43;;;14.10;67.10;;;;;;5033528;28;20873;-59
2023/04/24 08:29:31;;;;;;;5.40;4.90;;;14.00;67.00;;;;;;5033120;28;20523;-60
2023/04/24 08:31:58;;;;;;;7.37;5.57;;;14.00;66.60;;;;;;5033429;28;20481;-59
2023/04/24 08:34:25;;;;;;;5.53;5.03;;;14.10;66.80;;;;;;5033219;28;20449;-59
2023/04/24 08:36:51;;;;;;;6.67;5.67;;;14.30;66.30;;;;;;5034017;28;20457;-60
2023/04/24 08:39:18;;;;;;;6.23;4.70;;;14.30;65.00;;;;;;5033713;28;20445;-59
2023/04/24 08:41:46;;;;;;;6.00;5.13;;;14.20;64.80;;;;;;5036927;28;20452;-59
2023/04/24 08:44:15;;;;;;;5.70;4.87;;;14.20;64.60;;;;;;5040073;28;20484;-59
2023/04/24 08:46:44;;;;;;;5.70;5.20;;;14.30;64.50;;;;;;5038914;28;20531;-59
2023/04/24 08:49:12;;;;;;;6.17;5.47;;;14.50;63.30;;;;;;5038415;28;20449;-59
2023/04/24 08:51:40;;;;;;;6.00;5.37;;;14.70;62.20;;;;;;5036592;28;20477;-59
2023/04/24 08:54:07;;;;;;;6.03;5.40;;;14.80;61.30;;;;;;5037615;28;20456;-59
2023/04/24 08:56:37;;;;;;;6.53;5.10;;;14.80;60.90;;;;;;5037702;28;20457;-59
2023/04/24 08:59:04;;;;;;;5.87;4.40;;;14.80;60.90;;;;;;5037621;28;20895;-59
2023/04/24 09:01:33;;;;;;;5.40;4.47;;;14.90;60.70;;;;;;5037376;28;20437;-58
2023/04/24 09:04:03;;;;;;;4.57;4.07;;;14.80;59.70;;;;;;5037943;28;20444;-59
2023/04/24 09:06:31;;;;;;;4.50;3.53;;;14.80;59.80;;;;;;5036714;28;20440;-59
2023/04/24 09:09:02;;;;;;;3.90;3.60;;;14.90;59.60;;;;;;5037479;28;20451;-59
2023/04/24 09:11:29;;;;;;;4.67;3.20;;;14.90;59.40;;;;;;5037047;28;20480;-59
2023/04/24 09:13:56;;;;;;;4.17;2.80;;;15.20;59.00;;;;;;5037024;28;20455;-60
2023/04/24 09:16:24;;;;;;;3.63;3.03;;;15.40;58.10;;;;;;5036867;28;20457;-59
2023/04/24 09:18:51;;;;;;;2.60;2.30;;;15.70;56.60;;;;;;5037263;28;20447;-58
2023/04/24 09:21:22;;;;;;;2.60;2.40;;;16.00;55.70;;;;;;5036381;28;20484;-59
2023/04/24 09:23:59;;;;;;;3.73;3.30;;;16.10;54.80;;;;;;5036940;28;20456;-59
2023/04/24 09:26:26;;;;;;;3.97;2.50;;;15.90;54.60;;;;;;5036743;28;20483;-59
2023/04/24 09:28:54;;;;;;;3.30;2.60;;;15.70;54.60;;;;;;5036676;28;20452;-58
2023/04/24 09:31:22;;;;;;;2.57;2.37;;;15.50;55.60;;;;;;5036299;28;20484;-59
2023/04/24 09:33:55;;;;;;;5.93;3.10;;;15.30;55.60;;;;;;5036520;28;20556;-59
2023/04/24 09:36:31;;;;;;;3.40;3.03;;;15.10;55.80;;;;;;5036315;28;20816;-58
2023/04/24 09:38:59;;;;;;;3.30;2.90;;;14.90;56.30;;;;;;5036089;28;20437;-59
2023/04/24 09:41:27;;;;;;;3.90;3.17;;;14.70;56.60;;;;;;5037922;28;20453;-59
2023/04/24 09:43:55;;;;;;;3.50;3.20;;;14.50;57.10;;;;;;5036162;28;20935;-59
2023/04/24 09:46:22;;;;;;;5.37;3.50;;;14.40;57.50;;;;;;5036048;28;20456;-59
2023/04/24 09:48:49;;;;;;;3.30;3.00;;;14.40;57.90;;;;;;5035832;28;20441;-59
2023/04/24 09:51:15;;;;;;;3.03;2.83;;;14.50;58.20;;;;;;5035999;28;20525;-59
2023/04/24 09:53:48;;;;;;;3.67;3.37;;;14.60;58.00;;;;;;5036659;28;20452;-59
2023/04/24 09:56:14;;;;;;;6.40;3.20;;;14.80;57.90;;;;;;5036241;28;20433;-58
2023/04/24 09:58:41;;;;;;;3.80;3.10;;;15.00;57.60;;;;;;5036443;28;20494;-60
2023/04/24 10:01:08;;;;;;;4.83;3.00;;;15.10;57.20;;;;;;5036332;28;20527;-59
2023/04/24 10:03:35;;;;;;;3.13;2.83;;;15.10;57.20;;;;;;5036535;28;20484;-60
2023/04/24 10:06:08;;;;;;;3.80;3.50;;;15.00;57.10;;;;;;5036361;28;20449;-60
2023/04/24 10:08:35;;;;;;;4.00;3.60;;;14.70;57.30;;;;;;5035659;28;20941;-59
2023/04/24 10:11:04;;;;;;;5.30;4.20;;;14.50;57.90;;;;;;5035980;28;20468;-60
2023/04/24 10:13:32;;;;;;;3.90;2.80;;;14.30;58.30;;;;;;5036036;28;20442;-60
2023/04/24 10:16:01;;;;;;;3.53;3.20;;;14.20;58.70;;;;;;5036538;28;20501;-60
2023/04/24 10:18:28;;;;;;;3.20;2.90;;;14.20;59.00;;;;;;5036608;28;20441;-60
2023/04/24 10:20:55;;;;;;;3.80;2.80;;;14.20;59.00;;;;;;5035631;28;20495;-60
2023/04/24 10:23:23;;;;;;;3.23;2.90;;;14.30;58.90;;;;;;5036356;28;20835;-61
2023/04/24 10:25:51;;;;;;;3.50;2.37;;;14.30;58.90;;;;;;5036136;28;20453;-60
2023/04/24 10:28:20;;;;;;;2.70;2.50;;;14.40;59.10;;;;;;5036092;28;20449;-59
2023/04/24 10:30:48;;;;;;;3.93;3.00;;;14.40;59.10;;;;;;5036043;28;20457;-59
2023/04/24 10:33:15;;;;;;;3.70;2.60;;;14.30;59.10;;;;;;5036452;28;20487;-58
2023/04/24 10:35:45;;;;;;;2.80;2.60;;;14.30;59.20;;;;;;5036561;28;20448;-60
2023/04/24 10:38:14;;;;;;;5.03;3.17;;;14.30;59.30;;;;;;5035440;28;20457;-59
2023/04/24 10:40:41;;;;;;;3.00;2.57;;;14.20;59.40;;;;;;5036065;28;20829;-59
2023/04/24 10:43:10;;;;;;;3.97;3.23;;;14.10;59.80;;;;;;5034919;28;20441;-59
2023/04/24 10:45:39;;;;;;;3.50;3.17;;;14.00;60.00;;;;;;5035248;28;20594;-60
2023/04/24 10:48:10;;;;;;;4.00;3.23;;;13.90;60.90;;;;;;5035512;28;20503;-59
2023/04/24 10:50:45;;;;;;;2.90;2.70;;;13.70;61.50;;;;;;5034684;28;20460;-60
2023/04/24 10:53:17;;;;;;;3.50;2.83;;;13.60;62.20;;;;;;5035099;28;20472;-60
2023/04/24 10:55:46;;;;;;;2.60;2.20;;;13.50;62.80;;;;;;5034631;28;20441;-60
2023/04/24 10:58:13;;;;;;;8.33;2.73;;;13.40;63.30;;;;;;5035036;28;20448;-61
2023/04/24 11:00:42;;;;;;;2.90;2.60;;;13.30;63.60;;;;;;5034564;28;20552;-60
2023/04/24 11:03:25;;;;;;;3.90;2.63;;;13.40;64.10;;;;;;5034451;28;20451;-60
2023/04/24 11:05:54;;;;;;;2.50;2.30;;;13.40;64.10;;;;;;5034130;28;20429;-58
2023/04/24 11:08:30;;;;;;;3.13;2.40;;;13.40;64.10;;;;;;5034117;28;20448;-60
2023/04/24 11:11:02;;;;;;;2.70;2.50;;;13.50;64.10;;;;;;5035590;28;20469;-62
2023/04/24 11:13:52;;;;;;;3.20;2.43;;;13.60;64.00;;;;;;5036658;28;20565;-61
2023/04/24 11:16:29;;;;;;;2.83;2.37;;;13.70;63.80;;;;;;5035909;28;20425;-61
2023/04/24 11:19:02;;;;;;;3.63;2.03;;;13.60;63.40;;;;;;5036683;28;20426;-60
2023/04/24 11:21:33;;;;;;;2.63;2.43;;;13.40;63.40;;;;;;5036217;28;20469;-60
2023/04/24 11:24:15;;;;;;;2.70;2.07;;;13.40;63.90;;;;;;5035658;28;20487;-59
2023/04/24 11:26:42;;;;;;;2.10;1.90;;;13.30;64.20;;;;;;5033749;28;20452;-59
2023/04/24 11:29:09;;;;;;;2.43;1.87;;;13.20;64.50;;;;;;5034418;28;20448;-59
2023/04/24 11:31:38;;;;;;;3.30;1.70;;;13.20;64.70;;;;;;5034128;28;20441;-61
2023/04/24 11:34:09;;;;;;;1.80;1.70;;;13.30;64.90;;;;;;5034448;28;20449;-60
2023/04/24 11:36:36;;;;;;;3.60;1.37;;;13.40;64.40;;;;;;5034674;28;20441;-60
2023/04/24 11:39:03;;;;;;;1.70;1.50;;;13.50;64.00;;;;;;5034469;28;20471;-61
2023/04/24 11:41:31;;;;;;;2.10;1.60;;;13.80;63.20;;;;;;5035451;28;20448;-59
2023/04/24 11:43:58;;;;;;;2.33;1.57;;;14.00;62.50;;;;;;5034636;28;20460;-60
2023/04/24 11:46:28;;;;;;;2.40;2.20;;;14.10;61.80;;;;;;5036061;28;20443;-61
2023/04/24 11:48:57;;;;;;;1.63;1.40;;;14.10;61.70;;;;;;5036291;28;20433;-62
2023/04/24 11:51:25;;;;;;;1.67;1.57;;;14.00;61.60;;;;;;5036069;28;20465;-62
2023/04/24 11:53:52;;;;;;;1.77;1.67;;;13.90;61.60;;;;;;5035087;28;20599;-61
2023/04/24 11:56:19;;;;;;;1.67;1.57;;;13.80;61.60;;;;;;5034474;28;20445;-60
2023/04/24 11:58:46;;;;;;;1.77;1.40;;;13.70;61.70;;;;;;5034693;28;20472;-61
2023/04/24 12:01:13;;;;;;;1.77;1.67;;;13.60;62.10;;;;;;5035101;28;20495;-61
2023/04/24 12:03:42;;;;;;;2.23;1.47;;;13.60;62.40;;;;;;5035254;28;20939;-61
2023/04/24 12:06:12;;;;;;;1.70;1.53;;;13.60;62.30;;;;;;5039452;28;20492;-61
2023/04/24 12:08:39;;;;;;;1.40;1.30;;;13.70;62.20;;;;;;5040378;28;20473;-61
2023/04/24 12:11:07;;;;;;;1.53;1.40;;;13.80;62.00;;;;;;5039880;28;20556;-60
2023/04/24 12:13:35;;;;;;;2.30;1.10;;;13.80;62.00;;;;;;5040732;28;20500;-61
2023/04/24 12:16:04;;;;;;;1.10;1.00;;;13.80;62.10;;;;;;5040029;28;20441;-61
2023/04/24 12:18:31;;;;;;;1.27;1.17;;;13.80;62.00;;;;;;5042812;28;20444;-61
2023/04/24 12:21:18;;;;;;;1.13;1.03;;;13.70;61.60;;;;;;5050200;22;20546;-65
2023/04/24 12:23:46;;;;;;;1.50;1.13;;;13.60;61.70;;;;;;5033443;28;20750;-63
2023/04/24 12:26:13;;;;;;;1.97;1.13;;;13.50;62.00;;;;;;5033705;28;20441;-64
2023/04/24 12:28:40;;;;;;;1.27;1.17;;;13.50;62.50;;;;;;5033385;28;20449;-66
2023/04/24 12:31:08;;;;;;;2.03;1.20;;;13.60;62.40;;;;;;5033613;28;20780;-65
2023/04/24 12:33:36;;;;;;;1.50;1.10;;;13.70;62.20;;;;;;5037185;28;20477;-65
2023/04/24 12:36:03;;;;;;;1.30;1.20;;;14.00;61.90;;;;;;5038125;28;20459;-65
2023/04/24 12:38:40;;;;;;;1.40;1.20;;;14.30;62.00;;;;;;5037974;28;20810;-65
2023/04/24 12:41:08;;;;;;;1.43;1.17;;;14.70;60.80;;;;;;5038622;28;20554;-64
2023/04/24 12:43:36;;;;;;;2.20;1.70;;;14.90;60.50;;;;;;5038761;28;20460;-65
2023/04/24 12:46:03;;;;;;;1.20;1.10;;;14.90;59.50;;;;;;5039275;28;20444;-66
2023/04/24 12:48:30;;;;;;;1.23;1.13;;;15.10;59.40;;;;;;5039067;28;20455;-65
2023/04/24 12:51:01;;;;;;;3.03;1.30;;;15.20;59.00;;;;;;5038125;28;20465;-65
2023/04/24 12:53:29;;;;;;;1.53;1.20;;;15.20;58.40;;;;;;5037960;28;20994;-63